sensor_id;sensor_type;location;lat;lon;timestamp;pressure;altitude;pressure_sealevel;temperature
8533;BMP280;4304;53.876;10.662;2023-02-01T00:01:32;109972.41;;;-139.81
8533;BMP280;4304;53.876;10.662;2023-02-01T00:03:57;110071.63;;;-139.81
8533;BMP280;4304;53.876;10.662;2023-02-01T00:06:22;110012.91;;;-139.81
8533;BMP280;4304;53.876;10.662;2023-02-01T00:08:48;110067.56;;;-139.81
8533;BMP280;4304;53.876;10.662;2023-02-01T00:11:13;110063.53;;;-139.81
8533;BMP280;4304;53.876;10.662;2023-02-01T00:13:41;110067.56;;;-139.81
8533;BMP280;4304;53.876;10.662;2023-02-01T00:16:12;110059.47;;;-139.81
8533;BMP280;4304;53.876;10.662;2023-02-01T00:18:37;110047.31;;;-139.81
8533;BMP280;4304;53.876;10.662;2023-02-01T00:21:03;110014.94;;;-139.81
8533;BMP280;4304;53.876;10.662;2023-02-01T00:23:32;110089.84;;;-139.81
8533;BMP280;4304;53.876;10.662;2023-02-01T00:26:00;110083.75;;;-139.81
8533;BMP280;4304;53.876;10.662;2023-02-01T00:28:25;110091.84;;;-139.81
8533;BMP280;4304;53.876;10.662;2023-02-01T00:31:01;110104.00;;;-139.81
8533;BMP280;4304;53.876;10.662;2023-02-01T00:33:28;110008.84;;;-139.81
8533;BMP280;4304;53.876;10.662;2023-02-01T00:36:00;110045.31;;;-139.81
8533;BMP280;4304;53.876;10.662;2023-02-01T00:38:27;109986.59;;;-139.81
8533;BMP280;4304;53.876;10.662;2023-02-01T00:40:52;110087.81;;;-139.81
8533;BMP280;4304;53.876;10.662;2023-02-01T00:43:18;110095.91;;;-139.81
8533;BMP280;4304;53.876;10.662;2023-02-01T00:45:45;110235.59;;;-139.81
8533;BMP280;4304;53.876;10.662;2023-02-01T00:48:10;110160.69;;;-139.81
8533;BMP280;4304;53.876;10.662;2023-02-01T00:50:35;110156.66;;;-139.81
8533;BMP280;4304;53.876;10.662;2023-02-01T00:53:05;110128.31;;;-139.81
8533;BMP280;4304;53.876;10.662;2023-02-01T00:55:30;110170.81;;;-139.81
8533;BMP280;4304;53.876;10.662;2023-02-01T00:57:56;110274.06;;;-139.81
8533;BMP280;4304;53.876;10.662;2023-02-01T01:00:21;110095.91;;;-139.81
8533;BMP280;4304;53.876;10.662;2023-02-01T01:02:46;110108.06;;;-139.81
8533;BMP280;4304;53.876;10.662;2023-02-01T01:05:11;110245.72;;;-139.81
8533;BMP280;4304;53.876;10.662;2023-02-01T01:07:37;110063.53;;;-139.81
8533;BMP280;4304;53.876;10.662;2023-02-01T01:10:02;110116.16;;;-139.81
8533;BMP280;4304;53.876;10.662;2023-02-01T01:12:27;110160.69;;;-139.81
8533;BMP280;4304;53.876;10.662;2023-02-01T01:14:52;110104.00;;;-139.81
8533;BMP280;4304;53.876;10.662;2023-02-01T01:17:18;110018.97;;;-139.81
8533;BMP280;4304;53.876;10.662;2023-02-01T01:19:43;110095.91;;;-139.81
8533;BMP280;4304;53.876;10.662;2023-02-01T01:22:08;110073.63;;;-139.81
8533;BMP280;4304;53.876;10.662;2023-02-01T01:24:33;110160.69;;;-139.81
8533;BMP280;4304;53.876;10.662;2023-02-01T01:26:59;110124.25;;;-139.81
8533;BMP280;4304;53.876;10.662;2023-02-01T01:29:24;110142.47;;;-139.81
8533;BMP280;4304;53.876;10.662;2023-02-01T01:31:49;110174.88;;;-139.81
8533;BMP280;4304;53.876;10.662;2023-02-01T01:34:14;110116.16;;;-139.81
8533;BMP280;4304;53.876;10.662;2023-02-01T01:36:40;110172.84;;;-139.81
8533;BMP280;4304;53.876;10.662;2023-02-01T01:39:05;110172.84;;;-139.81
8533;BMP280;4304;53.876;10.662;2023-02-01T01:41:31;110138.44;;;-139.81
8533;BMP280;4304;53.876;10.662;2023-02-01T01:44:00;110047.31;;;-139.81
8533;BMP280;4304;53.876;10.662;2023-02-01T01:46:27;110144.50;;;-139.81
8533;BMP280;4304;53.876;10.662;2023-02-01T01:49:14;110237.63;;;-139.81
8533;BMP280;4304;53.876;10.662;2023-02-01T01:51:44;110201.19;;;-139.81
8533;BMP280;4304;53.876;10.662;2023-02-01T01:54:14;110172.84;;;-139.81
8533;BMP280;4304;53.876;10.662;2023-02-01T01:56:41;110270.03;;;-139.81
8533;BMP280;4304;53.876;10.662;2023-02-01T01:59:07;110128.31;;;-139.81
8533;BMP280;4304;53.876;10.662;2023-02-01T02:01:32;110091.84;;;-139.81
8533;BMP280;4304;53.876;10.662;2023-02-01T02:03:58;110164.75;;;-139.81
8533;BMP280;4304;53.876;10.662;2023-02-01T02:09:04;110075.66;;;-139.81
8533;BMP280;4304;53.876;10.662;2023-02-01T02:11:29;110067.56;;;-139.81
8533;BMP280;4304;53.876;10.662;2023-02-01T02:13:55;110051.38;;;-139.81
8533;BMP280;4304;53.876;10.662;2023-02-01T02:27:30;110290.28;;;-139.81
8533;BMP280;4304;53.876;10.662;2023-02-01T02:35:59;110282.16;;;-139.81
8533;BMP280;4304;53.876;10.662;2023-02-01T02:38:33;110401.63;;;-139.81
8533;BMP280;4304;53.876;10.662;2023-02-01T02:41:11;110371.25;;;-139.81
8533;BMP280;4304;53.876;10.662;2023-02-01T02:43:48;110288.25;;;-139.81
8533;BMP280;4304;53.876;10.662;2023-02-01T02:48:58;110359.09;;;-139.81
8533;BMP280;4304;53.876;10.662;2023-02-01T02:51:34;110328.75;;;-139.81
8533;BMP280;4304;53.876;10.662;2023-02-01T02:54:13;110383.41;;;-139.81
8533;BMP280;4304;53.876;10.662;2023-02-01T02:56:41;110290.28;;;-139.81
8533;BMP280;4304;53.876;10.662;2023-02-01T02:59:08;110387.44;;;-139.81
8533;BMP280;4304;53.876;10.662;2023-02-01T03:01:34;110338.84;;;-139.81
8533;BMP280;4304;53.876;10.662;2023-02-01T03:04:00;110306.47;;;-139.81
8533;BMP280;4304;53.876;10.662;2023-02-01T03:06:25;110294.31;;;-139.81
8533;BMP280;4304;53.876;10.662;2023-02-01T03:08:51;110371.25;;;-139.81
8533;BMP280;4304;53.876;10.662;2023-02-01T03:11:16;110316.59;;;-139.81
8533;BMP280;4304;53.876;10.662;2023-02-01T03:13:51;110371.25;;;-139.81
8533;BMP280;4304;53.876;10.662;2023-02-01T03:16:43;110379.34;;;-139.81
8533;BMP280;4304;53.876;10.662;2023-02-01T03:19:19;110468.44;;;-139.81
8533;BMP280;4304;53.876;10.662;2023-02-01T03:24:22;110474.50;;;-139.81
8533;BMP280;4304;53.876;10.662;2023-02-01T03:26:53;110464.38;;;-139.81
8533;BMP280;4304;53.876;10.662;2023-02-01T03:29:27;110567.66;;;-139.81
8533;BMP280;4304;53.876;10.662;2023-02-01T03:31:52;110488.69;;;-139.81
8533;BMP280;4304;53.876;10.662;2023-02-01T03:34:17;110452.25;;;-139.81
8533;BMP280;4304;53.876;10.662;2023-02-01T03:36:48;110541.31;;;-139.81
8533;BMP280;4304;53.876;10.662;2023-02-01T03:39:32;110555.50;;;-139.81
8533;BMP280;4304;53.876;10.662;2023-02-01T03:42:04;110359.09;;;-139.81
8533;BMP280;4304;53.876;10.662;2023-02-01T03:44:34;110294.31;;;-139.81
8533;BMP280;4304;53.876;10.662;2023-02-01T03:47:02;110215.34;;;-139.81
8533;BMP280;4304;53.876;10.662;2023-02-01T03:52:41;110245.72;;;-139.81
8533;BMP280;4304;53.876;10.662;2023-02-01T03:55:08;110176.91;;;-139.81
8533;BMP280;4304;53.876;10.662;2023-02-01T03:57:38;110018.97;;;-139.81
8533;BMP280;4304;53.876;10.662;2023-02-01T04:00:25;110104.00;;;-139.81
8533;BMP280;4304;53.876;10.662;2023-02-01T04:02:51;109925.84;;;-139.81
8533;BMP280;4304;53.876;10.662;2023-02-01T04:05:17;109968.38;;;-139.81
8533;BMP280;4304;53.876;10.662;2023-02-01T04:07:42;110063.53;;;-139.81
8533;BMP280;4304;53.876;10.662;2023-02-01T04:10:09;110089.84;;;-139.81
8533;BMP280;4304;53.876;10.662;2023-02-01T04:12:34;110176.91;;;-139.81
8533;BMP280;4304;53.876;10.662;2023-02-01T04:14:59;110231.56;;;-139.81
8533;BMP280;4304;53.876;10.662;2023-02-01T04:17:25;110265.97;;;-139.81
8533;BMP280;4304;53.876;10.662;2023-02-01T04:19:50;110278.13;;;-139.81
8533;BMP280;4304;53.876;10.662;2023-02-01T04:22:15;110187.00;;;-139.81
8533;BMP280;4304;53.876;10.662;2023-02-01T04:24:41;109980.53;;;-139.81
8533;BMP280;4304;53.876;10.662;2023-02-01T04:27:06;109836.78;;;-139.81
8533;BMP280;4304;53.876;10.662;2023-02-01T04:29:31;109729.50;;;-139.81
8533;BMP280;4304;53.876;10.662;2023-02-01T04:31:56;109634.38;;;-139.81
8533;BMP280;4304;53.876;10.662;2023-02-01T04:34:21;109727.47;;;-139.81
8533;BMP280;4304;53.876;10.662;2023-02-01T04:36:47;109666.75;;;-139.81
8533;BMP280;4304;53.876;10.662;2023-02-01T04:39:12;109772.00;;;-139.81
8533;BMP280;4304;53.876;10.662;2023-02-01T04:41:37;109729.50;;;-139.81
8533;BMP280;4304;53.876;10.662;2023-02-01T04:44:02;109668.78;;;-139.81
8533;BMP280;4304;53.876;10.662;2023-02-01T04:46:28;109739.63;;;-139.81
8533;BMP280;4304;53.876;10.662;2023-02-01T04:48:53;109604.00;;;-139.81
8533;BMP280;4304;53.876;10.662;2023-02-01T04:51:18;109589.84;;;-139.81
8533;BMP280;4304;53.876;10.662;2023-02-01T04:53:44;109626.28;;;-139.81
8533;BMP280;4304;53.876;10.662;2023-02-01T04:56:10;109535.19;;;-139.81
8533;BMP280;4304;53.876;10.662;2023-02-01T04:58:35;109668.78;;;-139.81
8533;BMP280;4304;53.876;10.662;2023-02-01T05:01:05;109751.78;;;-139.81
8533;BMP280;4304;53.876;10.662;2023-02-01T05:03:34;109822.63;;;-139.81
8533;BMP280;4304;53.876;10.662;2023-02-01T05:06:00;109593.88;;;-139.81
8533;BMP280;4304;53.876;10.662;2023-02-01T05:08:25;109642.47;;;-139.81
8533;BMP280;4304;53.876;10.662;2023-02-01T05:10:50;109699.13;;;-139.81
8533;BMP280;4304;53.876;10.662;2023-02-01T05:13:16;109682.94;;;-139.81
8533;BMP280;4304;53.876;10.662;2023-02-01T05:15:41;109735.56;;;-139.81
8533;BMP280;4304;53.876;10.662;2023-02-01T05:18:06;109743.69;;;-139.81
8533;BMP280;4304;53.876;10.662;2023-02-01T05:20:32;109772.00;;;-139.81
8533;BMP280;4304;53.876;10.662;2023-02-01T05:22:57;109804.41;;;-139.81
8533;BMP280;4304;53.876;10.662;2023-02-01T05:25:24;109844.88;;;-139.81
8533;BMP280;4304;53.876;10.662;2023-02-01T05:27:49;109921.81;;;-139.81
8533;BMP280;4304;53.876;10.662;2023-02-01T05:30:14;109905.63;;;-139.81
8533;BMP280;4304;53.876;10.662;2023-02-01T05:32:40;109921.81;;;-139.81
8533;BMP280;4304;53.876;10.662;2023-02-01T05:35:05;109944.09;;;-139.81
8533;BMP280;4304;53.876;10.662;2023-02-01T05:37:31;110170.81;;;-139.81
8533;BMP280;4304;53.876;10.662;2023-02-01T05:39:56;110043.28;;;-139.81
8533;BMP280;4304;53.876;10.662;2023-02-01T05:42:22;110053.41;;;-139.81
8533;BMP280;4304;53.876;10.662;2023-02-01T05:44:47;110071.63;;;-139.81
8533;BMP280;4304;53.876;10.662;2023-02-01T05:47:12;110069.59;;;-139.81
8533;BMP280;4304;53.876;10.662;2023-02-01T05:49:38;110057.44;;;-139.81
8533;BMP280;4304;53.876;10.662;2023-02-01T05:52:03;109984.56;;;-139.81
8533;BMP280;4304;53.876;10.662;2023-02-01T05:54:28;109848.94;;;-139.81
8533;BMP280;4304;53.876;10.662;2023-02-01T05:56:54;109935.97;;;-139.81
8533;BMP280;4304;53.876;10.662;2023-02-01T05:59:19;109899.53;;;-139.81
8533;BMP280;4304;53.876;10.662;2023-02-01T06:01:44;109893.47;;;-139.81
8533;BMP280;4304;53.876;10.662;2023-02-01T06:04:09;109927.88;;;-139.81
8533;BMP280;4304;53.876;10.662;2023-02-01T06:06:35;109772.00;;;-139.81
8533;BMP280;4304;53.876;10.662;2023-02-01T06:09:00;109838.81;;;-139.81
8533;BMP280;4304;53.876;10.662;2023-02-01T06:11:26;109881.31;;;-139.81
8533;BMP280;4304;53.876;10.662;2023-02-01T06:13:51;109834.75;;;-139.81
8533;BMP280;4304;53.876;10.662;2023-02-01T06:16:17;109804.41;;;-139.81
8533;BMP280;4304;53.876;10.662;2023-02-01T06:18:42;109804.41;;;-139.81
8533;BMP280;4304;53.876;10.662;2023-02-01T06:21:08;109812.50;;;-139.81
8533;BMP280;4304;53.876;10.662;2023-02-01T06:23:33;109778.09;;;-139.81
8533;BMP280;4304;53.876;10.662;2023-02-01T06:26:01;109840.84;;;-139.81
8533;BMP280;4304;53.876;10.662;2023-02-01T06:28:28;109933.97;;;-139.81
8533;BMP280;4304;53.876;10.662;2023-02-01T06:30:53;109802.38;;;-139.81
8533;BMP280;4304;53.876;10.662;2023-02-01T06:33:18;109792.25;;;-139.81
8533;BMP280;4304;53.876;10.662;2023-02-01T06:35:43;109840.84;;;-139.81
8533;BMP280;4304;53.876;10.662;2023-02-01T06:38:12;109784.16;;;-139.81
8533;BMP280;4304;53.876;10.662;2023-02-01T06:40:38;109780.09;;;-139.81
8533;BMP280;4304;53.876;10.662;2023-02-01T06:43:04;109632.34;;;-139.81
8533;BMP280;4304;53.876;10.662;2023-02-01T06:45:29;109666.75;;;-139.81
8533;BMP280;4304;53.876;10.662;2023-02-01T06:47:55;109774.03;;;-139.81
8533;BMP280;4304;53.876;10.662;2023-02-01T06:50:20;109533.16;;;-139.81
8533;BMP280;4304;53.876;10.662;2023-02-01T06:52:45;109551.38;;;-139.81
8533;BMP280;4304;53.876;10.662;2023-02-01T06:55:10;109593.88;;;-139.81
8533;BMP280;4304;53.876;10.662;2023-02-01T06:57:36;109646.50;;;-139.81
8533;BMP280;4304;53.876;10.662;2023-02-01T07:00:04;109796.31;;;-139.81
8533;BMP280;4304;53.876;10.662;2023-02-01T07:02:30;109618.16;;;-139.81
8533;BMP280;4304;53.876;10.662;2023-02-01T07:04:55;109599.97;;;-139.81
8533;BMP280;4304;53.876;10.662;2023-02-01T07:07:20;109561.50;;;-139.81
8533;BMP280;4304;53.876;10.662;2023-02-01T07:09:46;109701.16;;;-139.81
8533;BMP280;4304;53.876;10.662;2023-02-01T07:12:11;109676.88;;;-139.81
8533;BMP280;4304;53.876;10.662;2023-02-01T07:14:36;109662.72;;;-139.81
8533;BMP280;4304;53.876;10.662;2023-02-01T07:17:01;109676.88;;;-139.81
8533;BMP280;4304;53.876;10.662;2023-02-01T07:19:27;109682.94;;;-139.81
8533;BMP280;4304;53.876;10.662;2023-02-01T07:21:52;109715.34;;;-139.81
8533;BMP280;4304;53.876;10.662;2023-02-01T07:24:17;109670.81;;;-139.81
8533;BMP280;4304;53.876;10.662;2023-02-01T07:26:42;109660.69;;;-139.81
8533;BMP280;4304;53.876;10.662;2023-02-01T07:29:08;109672.81;;;-139.81
8533;BMP280;4304;53.876;10.662;2023-02-01T07:31:33;109778.09;;;-139.81
8533;BMP280;4304;53.876;10.662;2023-02-01T07:33:58;109672.81;;;-139.81
8533;BMP280;4304;53.876;10.662;2023-02-01T07:36:24;109717.38;;;-139.81
8533;BMP280;4304;53.876;10.662;2023-02-01T07:38:49;109739.63;;;-139.81
8533;BMP280;4304;53.876;10.662;2023-02-01T07:41:15;109753.78;;;-139.81
8533;BMP280;4304;53.876;10.662;2023-02-01T07:43:40;109682.94;;;-139.81
8533;BMP280;4304;53.876;10.662;2023-02-01T07:46:06;109695.09;;;-139.81
8533;BMP280;4304;53.876;10.662;2023-02-01T07:48:32;109695.09;;;-139.81
8533;BMP280;4304;53.876;10.662;2023-02-01T07:53:23;109701.16;;;-139.81
8533;BMP280;4304;53.876;10.662;2023-02-01T07:55:49;109733.56;;;-139.81
8533;BMP280;4304;53.876;10.662;2023-02-01T07:58:14;109832.75;;;-139.81
8533;BMP280;4304;53.876;10.662;2023-02-01T08:00:39;109942.06;;;-139.81
8533;BMP280;4304;53.876;10.662;2023-02-01T08:03:05;109966.34;;;-139.81
8533;BMP280;4304;53.876;10.662;2023-02-01T08:05:30;110002.78;;;-139.81
8533;BMP280;4304;53.876;10.662;2023-02-01T08:07:55;110016.97;;;-139.81
8533;BMP280;4304;53.876;10.662;2023-02-01T08:10:20;110037.19;;;-139.81
8533;BMP280;4304;53.876;10.662;2023-02-01T08:12:45;110057.44;;;-139.81
8533;BMP280;4304;53.876;10.662;2023-02-01T08:15:11;110124.25;;;-139.81
8533;BMP280;4304;53.876;10.662;2023-02-01T08:17:36;110324.69;;;-139.81
8533;BMP280;4304;53.876;10.662;2023-02-01T08:20:01;110502.84;;;-139.81
8533;BMP280;4304;53.876;10.662;2023-02-01T08:22:31;110640.53;;;-139.81
8533;BMP280;4304;53.876;10.662;2023-02-01T08:24:56;110859.25;;;-139.81
8533;BMP280;4304;53.876;10.662;2023-02-01T08:27:22;110857.22;;;-139.81
8533;BMP280;4304;53.876;10.662;2023-02-01T08:29:47;110843.03;;;-139.81
8533;BMP280;4304;53.876;10.662;2023-02-01T08:32:12;110942.25;;;-139.81
8533;BMP280;4304;53.876;10.662;2023-02-01T08:34:37;110922.00;;;-139.81
8533;BMP280;4304;53.876;10.662;2023-02-01T08:37:03;111023.25;;;-139.81
8533;BMP280;4304;53.876;10.662;2023-02-01T08:39:28;111138.69;;;-139.81
8533;BMP280;4304;53.876;10.662;2023-02-01T08:41:53;110911.88;;;-139.81
8533;BMP280;4304;53.876;10.662;2023-02-01T08:44:18;110753.94;;;-139.81
8533;BMP280;4304;53.876;10.662;2023-02-01T08:46:43;110792.41;;;-139.81
8533;BMP280;4304;53.876;10.662;2023-02-01T08:49:09;110743.81;;;-139.81
8533;BMP280;4304;53.876;10.662;2023-02-01T08:51:34;110555.50;;;-139.81
8533;BMP280;4304;53.876;10.662;2023-02-01T08:53:59;110616.25;;;-139.81
8533;BMP280;4304;53.876;10.662;2023-02-01T08:56:24;110780.25;;;-139.81
8533;BMP280;4304;53.876;10.662;2023-02-01T08:58:49;110691.16;;;-139.81
8533;BMP280;4304;53.876;10.662;2023-02-01T09:01:15;110800.50;;;-139.81
8533;BMP280;4304;53.876;10.662;2023-02-01T09:03:41;110818.75;;;-139.81
8533;BMP280;4304;53.876;10.662;2023-02-01T09:06:09;110940.25;;;-139.81
8533;BMP280;4304;53.876;10.662;2023-02-01T09:08:35;110699.25;;;-139.81
8533;BMP280;4304;53.876;10.662;2023-02-01T09:11:03;110845.06;;;-139.81
8533;BMP280;4304;53.876;10.662;2023-02-01T09:13:29;110905.81;;;-139.81
8533;BMP280;4304;53.876;10.662;2023-02-01T09:15:54;110994.91;;;-139.81
8533;BMP280;4304;53.876;10.662;2023-02-01T09:18:20;110954.41;;;-139.81
8533;BMP280;4304;53.876;10.662;2023-02-01T09:20:45;111205.53;;;-139.81
8533;BMP280;4304;53.876;10.662;2023-02-01T09:23:11;111424.28;;;-139.81
8533;BMP280;4304;53.876;10.662;2023-02-01T09:25:37;111363.50;;;-139.81
8533;BMP280;4304;53.876;10.662;2023-02-01T09:28:02;111426.28;;;-139.81
8533;BMP280;4304;53.876;10.662;2023-02-01T09:30:28;111120.47;;;-139.81
8533;BMP280;4304;53.876;10.662;2023-02-01T09:32:53;111383.75;;;-139.81
8533;BMP280;4304;53.876;10.662;2023-02-01T09:35:18;111185.28;;;-139.81
8533;BMP280;4304;53.876;10.662;2023-02-01T09:37:43;110845.06;;;-139.81
8533;BMP280;4304;53.876;10.662;2023-02-01T09:40:16;110857.22;;;-139.81
8533;BMP280;4304;53.876;10.662;2023-02-01T09:45:43;111001.00;;;-139.81
8533;BMP280;4304;53.876;10.662;2023-02-01T09:48:19;110818.75;;;-139.81
8533;BMP280;4304;53.876;10.662;2023-02-01T09:50:49;110784.31;;;-139.81
8533;BMP280;4304;53.876;10.662;2023-02-01T09:53:30;110719.53;;;-139.81
8533;BMP280;4304;53.876;10.662;2023-02-01T09:56:05;110723.56;;;-139.81
8533;BMP280;4304;53.876;10.662;2023-02-01T09:58:35;111122.50;;;-139.81
8533;BMP280;4304;53.876;10.662;2023-02-01T10:01:03;111365.53;;;-139.81
8533;BMP280;4304;53.876;10.662;2023-02-01T10:03:34;111551.88;;;-139.81
8533;BMP280;4304;53.876;10.662;2023-02-01T10:06:09;111541.75;;;-139.81
8533;BMP280;4304;53.876;10.662;2023-02-01T10:14:03;111880.00;;;-139.81
8533;BMP280;4304;53.876;10.662;2023-02-01T10:16:47;111938.75;;;-139.81
8533;BMP280;4304;53.876;10.662;2023-02-01T10:22:09;111618.72;;;-139.81
8533;BMP280;4304;53.876;10.662;2023-02-01T10:24:41;111574.16;;;-139.81
8533;BMP280;4304;53.876;10.662;2023-02-01T10:27:21;111689.59;;;-139.81
8533;BMP280;4304;53.876;10.662;2023-02-01T10:29:54;111969.16;;;-139.81
8533;BMP280;4304;53.876;10.662;2023-02-01T10:32:24;112230.47;;;-139.81
8533;BMP280;4304;53.876;10.662;2023-02-01T10:34:57;112362.19;;;-139.81
8533;BMP280;4304;53.876;10.662;2023-02-01T10:37:27;112362.19;;;-139.81
8533;BMP280;4304;53.876;10.662;2023-02-01T10:39:57;112463.47;;;-139.81
8533;BMP280;4304;53.876;10.662;2023-02-01T10:42:28;112362.19;;;-139.81
8533;BMP280;4304;53.876;10.662;2023-02-01T10:44:56;112258.84;;;-139.81
8533;BMP280;4304;53.876;10.662;2023-02-01T10:47:23;112157.56;;;-139.81
8533;BMP280;4304;53.876;10.662;2023-02-01T10:52:45;112194.00;;;-139.81
8533;BMP280;4304;53.876;10.662;2023-02-01T10:55:36;111999.53;;;-139.81
8533;BMP280;4304;53.876;10.662;2023-02-01T10:58:05;112013.72;;;-139.81
8533;BMP280;4304;53.876;10.662;2023-02-01T11:00:44;111920.53;;;-139.81
8533;BMP280;4304;53.876;10.662;2023-02-01T11:08:46;111867.88;;;-139.81
8533;BMP280;4304;53.876;10.662;2023-02-01T11:11:12;111788.84;;;-139.81
8533;BMP280;4304;53.876;10.662;2023-02-01T11:13:39;111916.47;;;-139.81
8533;BMP280;4304;53.876;10.662;2023-02-01T11:16:06;111865.84;;;-139.81
8533;BMP280;4304;53.876;10.662;2023-02-01T11:18:36;111831.41;;;-139.81
8533;BMP280;4304;53.876;10.662;2023-02-01T11:21:02;111717.97;;;-139.81
8533;BMP280;4304;53.876;10.662;2023-02-01T11:23:30;111681.50;;;-139.81
8533;BMP280;4304;53.876;10.662;2023-02-01T11:26:21;111685.56;;;-139.81
8533;BMP280;4304;53.876;10.662;2023-02-01T11:28:53;111233.88;;;-139.81
8533;BMP280;4304;53.876;10.662;2023-02-01T11:31:19;110960.50;;;-139.81
8533;BMP280;4304;53.876;10.662;2023-02-01T11:33:50;110917.97;;;-139.81
8533;BMP280;4304;53.876;10.662;2023-02-01T11:36:19;110658.78;;;-139.81
8533;BMP280;4304;53.876;10.662;2023-02-01T11:38:51;110826.84;;;-139.81
8533;BMP280;4304;53.876;10.662;2023-02-01T11:43:56;110889.63;;;-139.81
8533;BMP280;4304;53.876;10.662;2023-02-01T11:46:32;110804.56;;;-139.81
8533;BMP280;4304;53.876;10.662;2023-02-01T11:49:23;110845.06;;;-139.81
8533;BMP280;4304;53.876;10.662;2023-02-01T11:54:59;111037.44;;;-139.81
8533;BMP280;4304;53.876;10.662;2023-02-01T12:05:46;111428.31;;;-139.81
8533;BMP280;4304;53.876;10.662;2023-02-01T12:13:52;111570.09;;;-139.81
8533;BMP280;4304;53.876;10.662;2023-02-01T12:24:56;111353.38;;;-139.81
8533;BMP280;4304;53.876;10.662;2023-02-01T12:33:18;111185.28;;;-139.81
8533;BMP280;4304;53.876;10.662;2023-02-01T12:39:20;110992.88;;;-139.81
8533;BMP280;4304;53.876;10.662;2023-02-01T12:41:51;110818.75;;;-139.81
8533;BMP280;4304;53.876;10.662;2023-02-01T12:44:39;110743.81;;;-139.81
8533;BMP280;4304;53.876;10.662;2023-02-01T12:47:38;110504.88;;;-139.81
8533;BMP280;4304;53.876;10.662;2023-02-01T12:50:27;110286.22;;;-139.81
8533;BMP280;4304;53.876;10.662;2023-02-01T12:52:55;110122.22;;;-139.81
8533;BMP280;4304;53.876;10.662;2023-02-01T12:55:36;110146.53;;;-139.81
8533;BMP280;4304;53.876;10.662;2023-02-01T12:58:13;110434.03;;;-139.81
8533;BMP280;4304;53.876;10.662;2023-02-01T13:00:49;110425.91;;;-139.81
8533;BMP280;4304;53.876;10.662;2023-02-01T13:03:35;110689.13;;;-139.81
8533;BMP280;4304;53.876;10.662;2023-02-01T13:06:12;110591.94;;;-139.81
8533;BMP280;4304;53.876;10.662;2023-02-01T13:11:31;110674.97;;;-139.81
8533;BMP280;4304;53.876;10.662;2023-02-01T13:14:03;110519.06;;;-139.81
8533;BMP280;4304;53.876;10.662;2023-02-01T13:16:42;110681.03;;;-139.81
8533;BMP280;4304;53.876;10.662;2023-02-01T13:19:20;110802.53;;;-139.81
8533;BMP280;4304;53.876;10.662;2023-02-01T13:21:49;110863.28;;;-139.81
8533;BMP280;4304;53.876;10.662;2023-02-01T13:24:26;110952.38;;;-139.81
8533;BMP280;4304;53.876;10.662;2023-02-01T13:26:54;110743.81;;;-139.81
8533;BMP280;4304;53.876;10.662;2023-02-01T13:29:19;110841.00;;;-139.81
8533;BMP280;4304;53.876;10.662;2023-02-01T13:42:31;110176.91;;;-139.81
8533;BMP280;4304;53.876;10.662;2023-02-01T13:45:01;110116.16;;;-139.81
8533;BMP280;4304;53.876;10.662;2023-02-01T13:47:45;110257.88;;;-139.81
8533;BMP280;4304;53.876;10.662;2023-02-01T13:50:22;110237.63;;;-139.81
8533;BMP280;4304;53.876;10.662;2023-02-01T13:53:03;109905.63;;;-139.81
8533;BMP280;4304;53.876;10.662;2023-02-01T13:55:33;109956.22;;;-139.81
8533;BMP280;4304;53.876;10.662;2023-02-01T16:11:28;110545.38;;;-139.81
8533;BMP280;4304;53.876;10.662;2023-02-01T16:13:54;110270.03;;;-139.81
8533;BMP280;4304;53.876;10.662;2023-02-01T16:16:19;110332.78;;;-139.81
8533;BMP280;4304;53.876;10.662;2023-02-01T16:18:44;110182.97;;;-139.81
8533;BMP280;4304;53.876;10.662;2023-02-01T16:21:10;110191.06;;;-139.81
8533;BMP280;4304;53.876;10.662;2023-02-01T16:23:36;110223.47;;;-139.81
8533;BMP280;4304;53.876;10.662;2023-02-01T16:26:04;110205.22;;;-139.81
8533;BMP280;4304;53.876;10.662;2023-02-01T16:28:30;110359.09;;;-139.81
8533;BMP280;4304;53.876;10.662;2023-02-01T16:30:55;110095.91;;;-139.81
8533;BMP280;4304;53.876;10.662;2023-02-01T16:33:21;110132.34;;;-139.81
8533;BMP280;4304;53.876;10.662;2023-02-01T16:35:48;110126.28;;;-139.81
8533;BMP280;4304;53.876;10.662;2023-02-01T16:38:16;110027.09;;;-139.81
8533;BMP280;4304;53.876;10.662;2023-02-01T16:40:42;110025.06;;;-139.81
8533;BMP280;4304;53.876;10.662;2023-02-01T16:43:19;110089.84;;;-139.81
8533;BMP280;4304;53.876;10.662;2023-02-01T16:45:48;110055.41;;;-139.81
8533;BMP280;4304;53.876;10.662;2023-02-01T16:48:33;110083.75;;;-139.81
8533;BMP280;4304;53.876;10.662;2023-02-01T16:51:01;110081.75;;;-139.81
8533;BMP280;4304;53.876;10.662;2023-02-01T16:53:29;110002.78;;;-139.81
8533;BMP280;4304;53.876;10.662;2023-02-01T16:55:55;109940.03;;;-139.81
8533;BMP280;4304;53.876;10.662;2023-02-01T16:58:21;109873.22;;;-139.81
8533;BMP280;4304;53.876;10.662;2023-02-01T17:00:47;109966.34;;;-139.81
8533;BMP280;4304;53.876;10.662;2023-02-01T17:03:12;109917.75;;;-139.81
8533;BMP280;4304;53.876;10.662;2023-02-01T17:05:38;109954.19;;;-139.81
8533;BMP280;4304;53.876;10.662;2023-02-01T17:08:05;110061.50;;;-139.81
8533;BMP280;4304;53.876;10.662;2023-02-01T17:10:31;110095.91;;;-139.81
8533;BMP280;4304;53.876;10.662;2023-02-01T17:12:56;110065.53;;;-139.81
8533;BMP280;4304;53.876;10.662;2023-02-01T17:15:34;110168.78;;;-139.81
8533;BMP280;4304;53.876;10.662;2023-02-01T17:18:00;110055.41;;;-139.81
8533;BMP280;4304;53.876;10.662;2023-02-01T17:20:29;110059.47;;;-139.81
8533;BMP280;4304;53.876;10.662;2023-02-01T17:22:54;110091.84;;;-139.81
8533;BMP280;4304;53.876;10.662;2023-02-01T17:25:21;110083.75;;;-139.81
8533;BMP280;4304;53.876;10.662;2023-02-01T17:27:47;110178.91;;;-139.81
8533;BMP280;4304;53.876;10.662;2023-02-01T17:30:13;110162.72;;;-139.81
8533;BMP280;4304;53.876;10.662;2023-02-01T17:32:39;110144.50;;;-139.81
8533;BMP280;4304;53.876;10.662;2023-02-01T17:35:08;110180.94;;;-139.81
8533;BMP280;4304;53.876;10.662;2023-02-01T17:37:36;110166.75;;;-139.81
8533;BMP280;4304;53.876;10.662;2023-02-01T17:40:02;110185.00;;;-139.81
8533;BMP280;4304;53.876;10.662;2023-02-01T17:42:28;110213.34;;;-139.81
8533;BMP280;4304;53.876;10.662;2023-02-01T17:47:42;110189.03;;;-139.81